Time;durP1;ratioP1;P1;durP2;ratioP2;P2;SDS_P1;SDS_P2;PMS_P1;PMS_P2;Temp;Humidity;BMP_temperature;BMP_pressure;BME280_temperature;BME280_humidity;BME280_pressure;Samples;Min_cycle;Max_cycle;Signal;HPM_P1;HPM_P2
2023/03/30 00:02:07;;;;;;;;;0.00;0.00;;;;;;;;5065624;29;8854;-66
2023/03/30 00:04:41;;;;;;;;;0.00;0.00;;;;;;;;5048692;29;8834;-66
2023/03/30 00:07:12;;;;;;;;;0.00;0.00;;;;;;;;5048843;29;8867;-66
2023/03/30 00:09:45;;;;;;;;;0.00;0.00;;;;;;;;5065436;29;8790;-66
2023/03/30 00:12:19;;;;;;;;;0.00;0.00;;;;;;;;5065049;29;8834;-66
2023/03/30 00:14:50;;;;;;;;;0.00;0.00;;;;;;;;5048681;29;8786;-66
2023/03/30 00:17:21;;;;;;;;;0.00;0.00;;;;;;;;5064762;29;8841;-66
2023/03/30 00:19:52;;;;;;;;;1.00;1.00;;;;;;;;5032977;29;8802;-66
2023/03/30 00:22:23;;;;;;;;;0.00;0.00;;;;;;;;5065123;29;8845;-66
2023/03/30 00:24:54;;;;;;;;;4.25;4.25;;;;;;;;5065140;29;8810;-66
2023/03/30 00:27:26;;;;;;;;;0.00;0.00;;;;;;;;5048486;29;8933;-66
2023/03/30 00:29:57;;;;;;;;;1.00;1.00;;;;;;;;5065144;29;8801;-67
2023/03/30 00:32:28;;;;;;;;;0.80;0.80;;;;;;;;5048263;29;8845;-66
2023/03/30 00:35:18;;;;;;;;;0.00;0.00;;;;;;;;5051528;29;8924;-66
2023/03/30 00:37:50;;;;;;;;;0.00;0.00;;;;;;;;5051818;29;8817;-66
2023/03/30 00:40:22;;;;;;;;;0.00;0.00;;;;;;;;5052148;29;8828;-67
2023/03/30 00:43:00;;;;;;;;;0.20;0.20;;;;;;;;5052201;29;8822;-66
2023/03/30 00:45:35;;;;;;;;;0.00;0.00;;;;;;;;5036667;29;8810;-66
2023/03/30 00:48:14;;;;;;;;;0.00;0.00;;;;;;;;5052093;29;8868;-66
2023/03/30 00:50:48;;;;;;;;;7.20;7.20;;;;;;;;5068440;29;8782;-66
2023/03/30 00:53:19;;;;;;;;;0.00;0.00;;;;;;;;5068640;29;8781;-67
2023/03/30 00:55:52;;;;;;;;;1.00;1.00;;;;;;;;5036180;29;8834;-67
2023/03/30 00:58:24;;;;;;;;;1.00;1.00;;;;;;;;5052277;29;8798;-67
2023/03/30 01:01:17;;;;;;;;;1.00;1.00;;;;;;;;5068093;29;8863;-66
2023/03/30 01:03:49;;;;;;;;;0.00;0.00;;;;;;;;5051712;29;8853;-66
2023/03/30 01:06:23;;;;;;;;;0.00;0.00;;;;;;;;5052153;29;8785;-66
2023/03/30 01:08:54;;;;;;;;;0.00;0.00;;;;;;;;5068578;29;8817;-66
2023/03/30 01:11:26;;;;;;;;;0.00;0.00;;;;;;;;5068439;29;8810;-66
2023/03/30 01:13:59;;;;;;;;;1.00;0.60;;;;;;;;5068399;29;8808;-66
2023/03/30 01:16:38;;;;;;;;;1.60;1.60;;;;;;;;5042881;29;8843;-66
2023/03/30 01:19:17;;;;;;;;;1.20;1.20;;;;;;;;5032400;29;8827;-66
2023/03/30 01:22:25;;;;;;;;;0.00;0.00;;;;;;;;5049341;29;8874;-66
2023/03/30 01:24:57;;;;;;;;;0.00;0.00;;;;;;;;5047967;29;8833;-66
2023/03/30 01:28:05;;;;;;;;;0.00;0.00;;;;;;;;5048942;29;8872;-66
2023/03/30 01:30:48;;;;;;;;;2.00;2.00;;;;;;;;5059201;29;8802;-66
2023/03/30 01:33:28;;;;;;;;;1.00;1.00;;;;;;;;5051065;29;8797;-66
2023/03/30 01:36:00;;;;;;;;;0.00;0.00;;;;;;;;5051140;29;8798;-66
2023/03/30 01:39:11;;;;;;;;;0.00;0.00;;;;;;;;5038419;29;8781;-66
2023/03/30 01:41:53;;;;;;;;;2.80;2.80;;;;;;;;5035695;29;8793;-66
2023/03/30 01:44:42;;;;;;;;;1.20;1.20;;;;;;;;5068037;29;8818;-66
2023/03/30 01:47:15;;;;;;;;;9.00;8.20;;;;;;;;5066575;29;8869;-67
2023/03/30 01:50:00;;;;;;;;;5.00;4.00;;;;;;;;5035281;29;8790;-66
2023/03/30 01:52:41;;;;;;;;;1.20;1.20;;;;;;;;5050915;29;8815;-66
2023/03/30 01:55:30;;;;;;;;;4.40;4.40;;;;;;;;5029991;29;8852;-67
2023/03/30 01:58:05;;;;;;;;;2.00;2.00;;;;;;;;5035588;29;8808;-66
2023/03/30 02:00:40;;;;;;;;;0.00;0.00;;;;;;;;5067562;29;8996;-66
2023/03/30 02:03:17;;;;;;;;;0.60;0.60;;;;;;;;5050782;29;8814;-66
2023/03/30 02:05:50;;;;;;;;;1.00;1.00;;;;;;;;5050900;29;8817;-66
2023/03/30 02:08:25;;;;;;;;;0.80;0.80;;;;;;;;5067372;29;8785;-67
2023/03/30 02:10:57;;;;;;;;;0.00;0.00;;;;;;;;5067248;29;8798;-66
2023/03/30 02:13:30;;;;;;;;;2.00;2.00;;;;;;;;5019948;29;8844;-66
2023/03/30 02:16:05;;;;;;;;;0.00;0.00;;;;;;;;5050346;29;8822;-67
2023/03/30 02:18:37;;;;;;;;;0.00;0.00;;;;;;;;5050345;29;8786;-66
2023/03/30 02:21:08;;;;;;;;;0.00;0.00;;;;;;;;5067343;29;8813;-66
2023/03/30 02:23:41;;;;;;;;;0.00;0.00;;;;;;;;5050347;29;8825;-66
2023/03/30 02:26:12;;;;;;;;;0.00;0.00;;;;;;;;5050238;29;8809;-66
2023/03/30 02:28:43;;;;;;;;;0.00;0.00;;;;;;;;5066428;29;8852;-66
2023/03/30 02:31:15;;;;;;;;;4.80;4.80;;;;;;;;5034680;29;8888;-66
2023/03/30 02:34:05;;;;;;;;;1.00;1.00;;;;;;;;5019473;29;8806;-66
2023/03/30 02:36:49;;;;;;;;;0.00;0.00;;;;;;;;5034923;29;9515;-66
2023/03/30 02:39:35;;;;;;;;;1.20;1.20;;;;;;;;5050302;29;8808;-66
2023/03/30 02:42:11;;;;;;;;;1.00;1.00;;;;;;;;5066810;29;8806;-66
2023/03/30 02:44:42;;;;;;;;;0.00;0.00;;;;;;;;5049432;29;8877;-66
2023/03/30 02:47:26;;;;;;;;;0.00;0.00;;;;;;;;5034033;29;8798;-66
2023/03/30 02:50:10;;;;;;;;;0.00;0.00;;;;;;;;5050275;29;8782;-66
2023/03/30 02:52:55;;;;;;;;;1.00;1.00;;;;;;;;5050627;29;8920;-66
2023/03/30 02:55:44;;;;;;;;;0.00;0.00;;;;;;;;5034192;29;9002;-67
2023/03/30 02:58:25;;;;;;;;;0.00;0.00;;;;;;;;5034929;29;8798;-66
2023/03/30 03:01:13;;;;;;;;;0.00;0.00;;;;;;;;5036268;29;8810;-67
2023/03/30 03:03:57;;;;;;;;;0.00;0.00;;;;;;;;5033411;29;8818;-67
2023/03/30 03:06:31;;;;;;;;;1.00;1.00;;;;;;;;5049120;29;8822;-67
2023/03/30 03:09:02;;;;;;;;;2.80;1.60;;;;;;;;5019085;29;8825;-67
2023/03/30 03:11:36;;;;;;;;;0.00;0.00;;;;;;;;5049792;29;8869;-66
2023/03/30 03:14:08;;;;;;;;;1.00;1.00;;;;;;;;5049373;29;9533;-67
2023/03/30 03:16:39;;;;;;;;;1.00;1.00;;;;;;;;5033993;29;8817;-67
2023/03/30 03:19:20;;;;;;;;;0.00;0.00;;;;;;;;5049155;29;9586;-67
2023/03/30 03:21:53;;;;;;;;;0.00;0.00;;;;;;;;5034223;29;8786;-66
2023/03/30 03:24:24;;;;;;;;;2.40;2.40;;;;;;;;5048917;29;8810;-67
2023/03/30 03:27:30;;;;;;;;;0.80;0.80;;;;;;;;5049029;29;8801;-67
2023/03/30 03:30:24;;;;;;;;;22.20;19.00;;;;;;;;5048976;29;8805;-66
2023/03/30 03:33:05;;;;;;;;;5.80;5.80;;;;;;;;5033649;29;9609;-66
2023/03/30 03:35:39;;;;;;;;;4.00;4.00;;;;;;;;5065796;29;8782;-68
2023/03/30 03:38:12;;;;;;;;;2.00;2.00;;;;;;;;5049322;29;8794;-68
2023/03/30 03:40:48;;;;;;;;;1.00;1.00;;;;;;;;5043601;29;8815;-68
2023/03/30 03:43:20;;;;;;;;;2.00;2.00;;;;;;;;5046619;29;8927;-68
2023/03/30 03:45:52;;;;;;;;;1.00;1.00;;;;;;;;5033079;29;8944;-68
2023/03/30 03:48:24;;;;;;;;;1.20;1.20;;;;;;;;5048753;29;8798;-68
2023/03/30 03:50:57;;;;;;;;;1.00;1.00;;;;;;;;5049201;29;8786;-75
2023/03/30 03:53:30;;;;;;;;;17.40;16.60;;;;;;;;5033231;29;9552;-74
2023/03/30 03:56:06;;;;;;;;;9.00;9.00;;;;;;;;5033358;29;8830;-74
2023/03/30 03:58:38;;;;;;;;;2.40;2.40;;;;;;;;5032893;29;8889;-74
2023/03/30 04:01:13;;;;;;;;;4.80;4.20;;;;;;;;5032939;29;8786;-74
2023/03/30 04:04:03;;;;;;;;;1.00;1.00;;;;;;;;5048261;29;8829;-72
2023/03/30 04:06:35;;;;;;;;;1.00;1.00;;;;;;;;5048350;29;8947;-74
2023/03/30 04:09:25;;;;;;;;;2.00;2.00;;;;;;;;5048188;29;8798;-74
2023/03/30 04:12:09;;;;;;;;;9.00;9.00;;;;;;;;5049926;29;8802;-74
2023/03/30 04:15:06;;;;;;;;;4.00;4.00;;;;;;;;5036264;29;8806;-74
2023/03/30 04:17:58;;;;;;;;;5.00;5.00;;;;;;;;5016614;29;9798;-72
2023/03/30 04:20:51;;;;;;;;;5.20;5.20;;;;;;;;5031457;29;9551;-74
2023/03/30 04:23:47;;;;;;;;;5.00;5.00;;;;;;;;5025138;29;8802;-73
2023/03/30 04:26:40;;;;;;;;;51.40;44.20;;;;;;;;5035232;29;8901;-72
2023/03/30 04:29:39;;;;;;;;;13.00;13.00;;;;;;;;5028642;29;8836;-72
2023/03/30 04:32:33;;;;;;;;;14.00;14.00;;;;;;;;5064996;29;9557;-74
2023/03/30 04:35:19;;;;;;;;;11.60;9.60;;;;;;;;5032758;29;8893;-74
2023/03/30 04:38:28;;;;;;;;;7.60;7.60;;;;;;;;5030966;29;8794;-74
2023/03/30 04:41:09;;;;;;;;;5.00;5.00;;;;;;;;5032435;29;8944;-74
2023/03/30 04:44:05;;;;;;;;;10.80;10.80;;;;;;;;5031234;29;8842;-75
2023/03/30 04:46:56;;;;;;;;;18.00;18.00;;;;;;;;5051346;29;8792;-73
2023/03/30 04:50:07;;;;;;;;;11.00;11.00;;;;;;;;5061941;29;8804;-72
2023/03/30 04:52:58;;;;;;;;;11.00;10.20;;;;;;;;5062977;29;8792;-74
2023/03/30 04:55:56;;;;;;;;;12.20;11.40;;;;;;;;5018068;29;8825;-73
2023/03/30 04:58:47;;;;;;;;;7.00;7.00;;;;;;;;5015857;29;8835;-74
2023/03/30 05:01:37;;;;;;;;;6.80;6.80;;;;;;;;5015170;29;8818;-75
2023/03/30 05:04:24;;;;;;;;;11.00;11.00;;;;;;;;5030721;29;8835;-74
2023/03/30 05:07:15;;;;;;;;;70.20;56.80;;;;;;;;5006561;29;8845;-73
2023/03/30 05:10:08;;;;;;;;;18.80;18.00;;;;;;;;5017619;29;8834;-75
2023/03/30 05:13:09;;;;;;;;;30.00;27.00;;;;;;;;5015145;29;8826;-74
2023/03/30 05:15:58;;;;;;;;;11.40;11.40;;;;;;;;5013851;29;8838;-69
2023/03/30 05:18:48;;;;;;;;;15.20;15.20;;;;;;;;5013825;29;8814;-69
2023/03/30 05:21:49;;;;;;;;;11.00;11.00;;;;;;;;5000995;29;8924;-69
2023/03/30 05:24:38;;;;;;;;;18.80;18.40;;;;;;;;5011093;29;9541;-69
2023/03/30 05:27:40;;;;;;;;;29.80;29.40;;;;;;;;5034272;29;8854;-69
2023/03/30 05:30:40;;;;;;;;;44.00;40.80;;;;;;;;5017870;29;8818;-69
2023/03/30 05:33:46;;;;;;;;;45.20;40.80;;;;;;;;4972004;29;8936;-70
2023/03/30 05:36:43;;;;;;;;;10.60;10.60;;;;;;;;5011238;29;9668;-70
2023/03/30 05:39:32;;;;;;;;;10.60;10.40;;;;;;;;5017051;29;8802;-69
2023/03/30 05:42:21;;;;;;;;;13.00;13.00;;;;;;;;5027110;29;8828;-69
2023/03/30 05:45:12;;;;;;;;;10.00;10.00;;;;;;;;5023147;29;8859;-69
2023/03/30 05:48:02;;;;;;;;;13.20;13.20;;;;;;;;5066033;29;9621;-69
2023/03/30 05:50:48;;;;;;;;;6.00;6.00;;;;;;;;5048804;29;9544;-70
2023/03/30 05:53:40;;;;;;;;;6.60;6.40;;;;;;;;5062440;29;8911;-70
2023/03/30 05:56:41;;;;;;;;;4.60;4.60;;;;;;;;5024913;29;9632;-69
2023/03/30 05:59:44;;;;;;;;;25.20;25.20;;;;;;;;4994746;29;8822;-69
2023/03/30 06:02:29;;;;;;;;;25.60;25.60;;;;;;;;5047859;29;8849;-70
2023/03/30 06:05:07;;;;;;;;;7.60;7.60;;;;;;;;5012292;29;8836;-69
2023/03/30 06:07:39;;;;;;;;;6.00;6.00;;;;;;;;5026839;29;8816;-70
2023/03/30 06:10:10;;;;;;;;;6.00;6.00;;;;;;;;4996555;29;8825;-69
2023/03/30 06:12:41;;;;;;;;;6.40;6.40;;;;;;;;4996540;29;8823;-69
2023/03/30 06:15:23;;;;;;;;;24.20;24.20;;;;;;;;5008209;29;8849;-69
2023/03/30 06:17:59;;;;;;;;;5.20;5.20;;;;;;;;5047631;29;8811;-69
2023/03/30 06:20:30;;;;;;;;;2.20;2.20;;;;;;;;5015090;29;8936;-69
2023/03/30 06:23:03;;;;;;;;;6.60;6.60;;;;;;;;5015931;29;8840;-70
2023/03/30 06:25:35;;;;;;;;;9.00;9.00;;;;;;;;5030932;29;8820;-69
2023/03/30 06:28:06;;;;;;;;;3.00;3.00;;;;;;;;5012770;29;8834;-69
2023/03/30 06:30:39;;;;;;;;;5.60;5.60;;;;;;;;5011879;29;8846;-69
2023/03/30 06:33:17;;;;;;;;;11.00;11.00;;;;;;;;5011606;29;8811;-67
2023/03/30 06:36:08;;;;;;;;;4.00;3.60;;;;;;;;5028673;29;9632;-70
2023/03/30 06:38:58;;;;;;;;;26.20;25.40;;;;;;;;5027596;29;9552;-68
2023/03/30 06:41:30;;;;;;;;;3.00;3.00;;;;;;;;5028847;29;8867;-68
2023/03/30 06:44:01;;;;;;;;;3.00;3.00;;;;;;;;5028778;29;9524;-67
2023/03/30 06:46:41;;;;;;;;;6.60;6.60;;;;;;;;5030505;29;8932;-68
2023/03/30 06:49:13;;;;;;;;;86.60;66.80;;;;;;;;5030160;29;9517;-68
2023/03/30 06:51:46;;;;;;;;;5.40;5.40;;;;;;;;5030045;29;8830;-68
2023/03/30 06:54:19;;;;;;;;;2.80;2.80;;;;;;;;5046374;29;9475;-69
2023/03/30 06:57:08;;;;;;;;;14.20;14.00;;;;;;;;5049706;29;9594;-68
2023/03/30 06:59:40;;;;;;;;;1.00;1.00;;;;;;;;5014678;29;8791;-67
2023/03/30 07:02:26;;;;;;;;;5.20;5.20;;;;;;;;5027567;29;8792;-67
2023/03/30 07:05:23;;;;;;;;;5.80;5.80;;;;;;;;5046449;29;9717;-67
2023/03/30 07:08:13;;;;;;;;;13.40;12.00;;;;;;;;5033060;29;8811;-67
2023/03/30 07:10:51;;;;;;;;;7.20;7.20;;;;;;;;5015887;29;8835;-67
2023/03/30 07:13:24;;;;;;;;;12.40;12.40;;;;;;;;5010103;29;8792;-67
2023/03/30 07:16:14;;;;;;;;;4.40;4.40;;;;;;;;5051889;29;8935;-67
2023/03/30 07:18:45;;;;;;;;;2.40;2.40;;;;;;;;5033283;29;8938;-68
2023/03/30 07:21:17;;;;;;;;;4.80;4.80;;;;;;;;5029363;29;8818;-67
2023/03/30 07:23:49;;;;;;;;;9.40;9.40;;;;;;;;5029413;29;8834;-68
2023/03/30 07:26:39;;;;;;;;;5.00;5.00;;;;;;;;5029175;29;8878;-68
2023/03/30 07:29:14;;;;;;;;;11.60;11.00;;;;;;;;5046191;29;8811;-68
2023/03/30 07:31:48;;;;;;;;;4.20;4.20;;;;;;;;5014392;29;8833;-68
2023/03/30 07:34:19;;;;;;;;;10.80;10.80;;;;;;;;5029713;29;8834;-68
2023/03/30 07:36:57;;;;;;;;;7.40;7.40;;;;;;;;4995938;29;8819;-69
2023/03/30 07:39:32;;;;;;;;;1.00;1.00;;;;;;;;5030075;29;8812;-67
2023/03/30 07:42:04;;;;;;;;;4.40;4.40;;;;;;;;4998497;29;8820;-69
2023/03/30 07:44:35;;;;;;;;;14.60;14.60;;;;;;;;4999512;29;8947;-70
2023/03/30 07:47:10;;;;;;;;;10.40;10.40;;;;;;;;5023623;29;8864;-69
2023/03/30 07:49:43;;;;;;;;;1.25;1.25;;;;;;;;5011860;29;8844;-68
2023/03/30 07:52:14;;;;;;;;;19.40;16.20;;;;;;;;5043831;29;8840;-68
2023/03/30 07:54:55;;;;;;;;;10.00;10.00;;;;;;;;5020423;29;8864;-67
2023/03/30 07:57:41;;;;;;;;;18.00;18.00;;;;;;;;5054139;29;8846;-68
2023/03/30 08:00:15;;;;;;;;;5.00;5.00;;;;;;;;5031022;29;8836;-68
2023/03/30 08:03:07;;;;;;;;;3.00;3.00;;;;;;;;5063004;29;8935;-67
2023/03/30 08:05:39;;;;;;;;;4.00;4.00;;;;;;;;5031461;29;8886;-67
2023/03/30 08:08:22;;;;;;;;;1.00;1.00;;;;;;;;5046593;29;8824;-68
2023/03/30 08:10:53;;;;;;;;;4.75;4.75;;;;;;;;5045655;29;8819;-68
2023/03/30 08:13:24;;;;;;;;;4.75;4.75;;;;;;;;5046041;29;8844;-68
2023/03/30 08:15:55;;;;;;;;;4.00;4.00;;;;;;;;5046687;29;8937;-68
2023/03/30 08:18:26;;;;;;;;;16.75;16.75;;;;;;;;5045658;29;8971;-67
2023/03/30 08:20:58;;;;;;;;;6.50;6.25;;;;;;;;5045794;29;9833;-68
2023/03/30 08:23:29;;;;;;;;;8.60;8.60;;;;;;;;5063118;29;11671;-68
2023/03/30 08:26:00;;;;;;;;;17.60;17.60;;;;;;;;5062961;29;8836;-68
2023/03/30 08:28:31;;;;;;;;;8.00;8.00;;;;;;;;5046564;29;8819;-68
2023/03/30 08:31:04;;;;;;;;;6.00;6.00;;;;;;;;5029491;29;10198;-68
2023/03/30 08:33:35;;;;;;;;;12.00;12.00;;;;;;;;5011679;29;11561;-68
2023/03/30 08:36:07;;;;;;;;;4.50;4.50;;;;;;;;5048209;29;8812;-67
2023/03/30 08:38:38;;;;;;;;;5.00;5.00;;;;;;;;5048302;29;8837;-67
2023/03/30 08:41:20;;;;;;;;;1.75;1.75;;;;;;;;5048053;29;8808;-67
2023/03/30 08:44:00;;;;;;;;;1.50;1.50;;;;;;;;5053698;29;8817;-67
2023/03/30 08:46:32;;;;;;;;;1.50;1.50;;;;;;;;5052056;29;8828;-67
2023/03/30 08:49:06;;;;;;;;;1.75;1.75;;;;;;;;5047868;29;9592;-67
2023/03/30 08:51:38;;;;;;;;;5.50;5.50;;;;;;;;5047474;29;8883;-67
2023/03/30 08:54:14;;;;;;;;;2.75;2.75;;;;;;;;5064317;29;9600;-67
2023/03/30 08:57:04;;;;;;;;;2.00;2.00;;;;;;;;5033604;29;8881;-67
2023/03/30 09:00:18;;;;;;;;;4.25;4.25;;;;;;;;5038803;29;8778;-68
2023/03/30 09:02:52;;;;;;;;;2.50;2.50;;;;;;;;5025648;29;8793;-68
2023/03/30 09:05:51;;;;;;;;;0.00;0.00;;;;;;;;5038035;29;8790;-67
2023/03/30 09:08:27;;;;;;;;;2.25;2.25;;;;;;;;5068184;29;8809;-76
2023/03/30 09:11:20;;;;;;;;;3.60;3.60;;;;;;;;5036984;29;8808;-73
2023/03/30 09:13:52;;;;;;;;;2.50;2.50;;;;;;;;5068324;29;8825;-74
2023/03/30 09:16:37;;;;;;;;;4.00;4.00;;;;;;;;5020720;29;9510;-75
2023/03/30 09:19:13;;;;;;;;;12.00;11.40;;;;;;;;5051472;29;8829;-75
2023/03/30 09:21:44;;;;;;;;;13.20;12.80;;;;;;;;5051522;29;8802;-74
2023/03/30 09:24:19;;;;;;;;;9.00;9.00;;;;;;;;5035981;29;9534;-73
2023/03/30 09:26:59;;;;;;;;;6.60;6.60;;;;;;;;5020334;29;9574;-73
2023/03/30 09:29:33;;;;;;;;;6.80;6.80;;;;;;;;5035600;29;8801;-73
2023/03/30 09:32:20;;;;;;;;;2.75;2.25;;;;;;;;5035463;29;8818;-72
2023/03/30 09:35:10;;;;;;;;;4.75;4.75;;;;;;;;5036124;29;9758;-73
2023/03/30 09:37:45;;;;;;;;;6.00;6.00;;;;;;;;5016270;29;8796;-74
2023/03/30 09:40:19;;;;;;;;;11.60;11.60;;;;;;;;5031677;29;8810;-73
2023/03/30 09:42:50;;;;;;;;;8.80;8.80;;;;;;;;5031747;29;9564;-75
2023/03/30 09:45:33;;;;;;;;;2.00;2.00;;;;;;;;5043975;29;8890;-74
2023/03/30 09:48:07;;;;;;;;;3.75;3.75;;;;;;;;5050767;29;11389;-75
2023/03/30 09:50:39;;;;;;;;;3.00;3.00;;;;;;;;5050584;29;8932;-74
2023/03/30 09:53:23;;;;;;;;;3.00;3.00;;;;;;;;5035788;29;8829;-75
2023/03/30 09:56:08;;;;;;;;;6.00;6.00;;;;;;;;5050439;29;9611;-73
2023/03/30 09:58:40;;;;;;;;;4.00;4.00;;;;;;;;5033508;29;8825;-75
2023/03/30 10:01:13;;;;;;;;;1.00;1.00;;;;;;;;5050283;29;8826;-73
2023/03/30 10:03:45;;;;;;;;;1.25;1.25;;;;;;;;5015939;29;8840;-74
2023/03/30 10:06:17;;;;;;;;;6.50;6.50;;;;;;;;5031220;29;8810;-73
2023/03/30 10:08:48;;;;;;;;;3.00;3.00;;;;;;;;5017675;29;8860;-73
2023/03/30 10:11:21;;;;;;;;;2.00;2.00;;;;;;;;5050027;29;8893;-73
2023/03/30 10:13:52;;;;;;;;;2.00;2.00;;;;;;;;5030333;29;8824;-74
2023/03/30 10:16:28;;;;;;;;;12.40;12.00;;;;;;;;5029417;29;8820;-75
2023/03/30 10:19:00;;;;;;;;;5.75;5.75;;;;;;;;5045965;29;9519;-67
2023/03/30 10:21:35;;;;;;;;;6.00;6.00;;;;;;;;5047406;29;8834;-76
2023/03/30 10:24:13;;;;;;;;;5.60;5.60;;;;;;;;5045137;29;8825;-73
2023/03/30 10:26:45;;;;;;;;;4.00;4.00;;;;;;;;5018094;29;9612;-74
2023/03/30 10:29:18;;;;;;;;;2.75;2.75;;;;;;;;5033211;29;8820;-67
2023/03/30 10:31:52;;;;;;;;;77.20;59.00;;;;;;;;5048759;29;8778;-75
2023/03/30 10:34:29;;;;;;;;;9.00;8.25;;;;;;;;5065835;29;8782;-67
2023/03/30 10:37:03;;;;;;;;;7.25;7.25;;;;;;;;5049829;29;8810;-67
2023/03/30 10:39:37;;;;;;;;;3.50;3.50;;;;;;;;5034429;29;8865;-67
2023/03/30 10:42:12;;;;;;;;;4.00;4.00;;;;;;;;5033857;29;8824;-67
2023/03/30 10:44:46;;;;;;;;;5.00;5.00;;;;;;;;5045882;29;9623;-67
2023/03/30 10:47:30;;;;;;;;;3.50;3.50;;;;;;;;5063725;29;8848;-66
2023/03/30 10:50:06;;;;;;;;;2.75;2.75;;;;;;;;5049370;29;8932;-67
2023/03/30 10:52:50;;;;;;;;;3.00;3.00;;;;;;;;5064900;29;8828;-67
2023/03/30 10:55:33;;;;;;;;;4.25;4.25;;;;;;;;5049036;29;8837;-67
2023/03/30 10:58:11;;;;;;;;;13.20;13.20;;;;;;;;5066154;29;8790;-68
2023/03/30 11:01:01;;;;;;;;;2.00;2.00;;;;;;;;5030478;29;8950;-68
2023/03/30 11:03:34;;;;;;;;;1.00;1.00;;;;;;;;5045743;29;8814;-68
2023/03/30 11:06:34;;;;;;;;;2.25;2.25;;;;;;;;5033768;29;9551;-68
2023/03/30 11:09:09;;;;;;;;;3.75;3.75;;;;;;;;5049815;29;8911;-68
2023/03/30 11:11:48;;;;;;;;;1.75;1.75;;;;;;;;5048798;29;8801;-68
2023/03/30 11:14:42;;;;;;;;;2.00;2.00;;;;;;;;5018176;29;8877;-68
2023/03/30 11:17:26;;;;;;;;;4.00;4.00;;;;;;;;5058232;29;8814;-68
2023/03/30 11:19:59;;;;;;;;;1.00;1.00;;;;;;;;5048467;29;8927;-68
2023/03/30 11:22:40;;;;;;;;;2.00;2.00;;;;;;;;5049292;29;8814;-68
2023/03/30 11:25:31;;;;;;;;;2.00;2.00;;;;;;;;5033588;29;8849;-67
2023/03/30 11:28:15;;;;;;;;;2.00;2.00;;;;;;;;5033203;29;8937;-68
2023/03/30 11:30:47;;;;;;;;;4.00;4.00;;;;;;;;5065483;29;8817;-67
2023/03/30 11:33:31;;;;;;;;;6.60;6.60;;;;;;;;5048580;29;8860;-68
2023/03/30 11:36:17;;;;;;;;;4.25;4.25;;;;;;;;5033371;29;8829;-68
2023/03/30 11:39:12;;;;;;;;;3.75;3.00;;;;;;;;5051087;29;8857;-68
2023/03/30 11:41:50;;;;;;;;;2.00;2.00;;;;;;;;5063924;29;8814;-67
2023/03/30 11:44:21;;;;;;;;;9.75;9.75;;;;;;;;5056230;29;8882;-69
2023/03/30 11:47:03;;;;;;;;;5.50;5.50;;;;;;;;5045562;29;8810;-69
2023/03/30 11:49:40;;;;;;;;;4.00;4.00;;;;;;;;5048875;29;8873;-68
2023/03/30 11:52:26;;;;;;;;;5.00;5.00;;;;;;;;5065068;29;8913;-68
2023/03/30 11:55:15;;;;;;;;;2.00;2.00;;;;;;;;5048584;29;8864;-68
2023/03/30 11:58:06;;;;;;;;;3.25;3.25;;;;;;;;5049121;29;8872;-68
2023/03/30 12:00:40;;;;;;;;;6.75;6.75;;;;;;;;5034255;29;8821;-69
2023/03/30 12:03:30;;;;;;;;;3.00;3.00;;;;;;;;5059573;29;8826;-67
2023/03/30 12:06:13;;;;;;;;;2.75;2.75;;;;;;;;5039899;29;8880;-69
2023/03/30 12:09:03;;;;;;;;;2.00;2.00;;;;;;;;5028774;29;8822;-68
2023/03/30 12:11:50;;;;;;;;;3.50;3.50;;;;;;;;5032583;29;8880;-68
2023/03/30 12:14:44;;;;;;;;;3.00;3.00;;;;;;;;5045893;29;9598;-68
2023/03/30 12:17:19;;;;;;;;;0.00;0.00;;;;;;;;5029377;29;9556;-68
2023/03/30 12:19:53;;;;;;;;;3.75;3.75;;;;;;;;5044440;29;8818;-68
2023/03/30 12:22:34;;;;;;;;;14.00;13.00;;;;;;;;5029004;29;8900;-68
2023/03/30 12:25:35;;;;;;;;;18.75;18.25;;;;;;;;5037216;29;8841;-67
2023/03/30 12:28:12;;;;;;;;;4.00;3.50;;;;;;;;4999101;29;8798;-68
2023/03/30 12:31:02;;;;;;;;;2.00;2.00;;;;;;;;5050637;29;8810;-68
2023/03/30 12:33:44;;;;;;;;;3.00;3.00;;;;;;;;5053843;29;8828;-68
2023/03/30 12:36:36;;;;;;;;;2.50;2.50;;;;;;;;5052349;29;8798;-68
2023/03/30 12:39:30;;;;;;;;;0.75;0.75;;;;;;;;5068276;29;8877;-68
2023/03/30 12:42:04;;;;;;;;;2.25;2.25;;;;;;;;5044365;29;8806;-68
2023/03/30 12:44:54;;;;;;;;;6.00;6.00;;;;;;;;5062838;29;8824;-67
2023/03/30 12:47:43;;;;;;;;;2.50;2.25;;;;;;;;5087968;29;8788;-67
2023/03/30 12:50:26;;;;;;;;;2.00;2.00;;;;;;;;5053784;29;8786;-67
2023/03/30 12:53:16;;;;;;;;;5.75;5.75;;;;;;;;5051933;29;8786;-67
2023/03/30 12:55:53;;;;;;;;;3.00;3.00;;;;;;;;5048053;29;8901;-68
2023/03/30 12:58:43;;;;;;;;;1.75;1.75;;;;;;;;5058052;29;9628;-67
2023/03/30 13:01:26;;;;;;;;;3.75;3.50;;;;;;;;5026942;29;8954;-68
2023/03/30 13:04:06;;;;;;;;;2.00;2.00;;;;;;;;5043720;29;8928;-67
2023/03/30 13:06:40;;;;;;;;;2.25;2.25;;;;;;;;5033183;29;8818;-67
2023/03/30 13:09:14;;;;;;;;;7.00;7.00;;;;;;;;5050645;29;8822;-67
2023/03/30 13:12:05;;;;;;;;;2.00;2.00;;;;;;;;5068197;29;8814;-67
2023/03/30 13:15:03;;;;;;;;;4.25;2.50;;;;;;;;5054006;29;8794;-68
2023/03/30 13:17:53;;;;;;;;;0.75;0.75;;;;;;;;5036168;29;8801;-68
2023/03/30 13:20:32;;;;;;;;;3.25;3.25;;;;;;;;5035611;29;8802;-68
2023/03/30 13:23:09;;;;;;;;;2.00;2.00;;;;;;;;5035725;29;8798;-68
2023/03/30 13:26:10;;;;;;;;;1.00;1.00;;;;;;;;5068468;29;8770;-68
2023/03/30 13:28:58;;;;;;;;;1.00;1.00;;;;;;;;5023954;29;8828;-68
2023/03/30 13:31:41;;;;;;;;;3.00;3.00;;;;;;;;5051607;29;8803;-68
2023/03/30 13:34:24;;;;;;;;;6.00;6.00;;;;;;;;5067841;29;8786;-68
2023/03/30 13:37:24;;;;;;;;;3.50;3.50;;;;;;;;5035477;29;8854;-68
2023/03/30 13:39:58;;;;;;;;;3.00;3.00;;;;;;;;5017080;29;9005;-67
2023/03/30 13:42:48;;;;;;;;;8.75;8.75;;;;;;;;5067762;29;8821;-68
2023/03/30 13:45:28;;;;;;;;;3.00;3.00;;;;;;;;5084158;29;8839;-68
2023/03/30 13:48:05;;;;;;;;;3.25;3.25;;;;;;;;5079206;29;8828;-67
2023/03/30 13:50:37;;;;;;;;;4.40;4.40;;;;;;;;5067118;29;8884;-67
2023/03/30 13:53:09;;;;;;;;;4.60;4.60;;;;;;;;5035232;29;8798;-67
2023/03/30 13:55:42;;;;;;;;;4.00;4.00;;;;;;;;5050627;29;8813;-68
2023/03/30 13:58:16;;;;;;;;;2.00;2.00;;;;;;;;5067014;29;8944;-68
2023/03/30 14:00:52;;;;;;;;;8.60;8.60;;;;;;;;5066916;29;8789;-68
2023/03/30 14:03:26;;;;;;;;;3.00;3.00;;;;;;;;5050042;29;8923;-68
2023/03/30 14:06:02;;;;;;;;;5.25;5.25;;;;;;;;5050183;29;8824;-68
2023/03/30 14:08:37;;;;;;;;;1.75;1.75;;;;;;;;5035245;29;8782;-68
2023/03/30 14:11:19;;;;;;;;;2.00;2.00;;;;;;;;5019534;29;8936;-68
2023/03/30 14:13:51;;;;;;;;;2.00;2.00;;;;;;;;5031710;29;8855;-68
2023/03/30 14:16:41;;;;;;;;;4.00;4.00;;;;;;;;5047109;29;8853;-68
2023/03/30 14:19:19;;;;;;;;;9.20;8.40;;;;;;;;5047931;29;9547;-68
2023/03/30 14:22:10;;;;;;;;;25.20;25.00;;;;;;;;5048181;29;9552;-68
2023/03/30 14:24:55;;;;;;;;;1.80;1.80;;;;;;;;5064164;29;8841;-68
2023/03/30 14:27:45;;;;;;;;;4.50;4.50;;;;;;;;5050390;29;8809;-67
2023/03/30 14:30:34;;;;;;;;;1.50;1.50;;;;;;;;5050914;29;8927;-68
2023/03/30 14:33:12;;;;;;;;;1.00;1.00;;;;;;;;5032522;29;8805;-67
2023/03/30 14:36:02;;;;;;;;;2.80;2.80;;;;;;;;5065084;29;10763;-67
2023/03/30 14:38:43;;;;;;;;;2.25;2.25;;;;;;;;5047549;29;8976;-67
2023/03/30 14:41:22;;;;;;;;;2.00;2.00;;;;;;;;5032439;29;8881;-67
2023/03/30 14:43:53;;;;;;;;;8.80;6.60;;;;;;;;5048280;29;8843;-67
2023/03/30 14:46:27;;;;;;;;;2.00;2.00;;;;;;;;5064678;29;9593;-67
2023/03/30 14:49:28;;;;;;;;;7.00;6.80;;;;;;;;5051371;29;8813;-68
2023/03/30 14:52:03;;;;;;;;;2.60;1.80;;;;;;;;5034286;29;8822;-67
2023/03/30 14:54:54;;;;;;;;;3.00;3.00;;;;;;;;5065513;29;8838;-67
2023/03/30 14:57:25;;;;;;;;;1.75;1.75;;;;;;;;5066130;29;8896;-67
2023/03/30 14:59:58;;;;;;;;;4.80;4.80;;;;;;;;5065569;29;8817;-67
2023/03/30 15:02:30;;;;;;;;;8.40;8.20;;;;;;;;5049175;29;8809;-68
2023/03/30 15:05:02;;;;;;;;;2.60;2.60;;;;;;;;5065246;29;8852;-67
2023/03/30 15:07:34;;;;;;;;;1.00;1.00;;;;;;;;5049399;29;8821;-67
2023/03/30 15:10:05;;;;;;;;;3.00;3.00;;;;;;;;5049258;29;8814;-68
2023/03/30 15:12:43;;;;;;;;;3.75;3.75;;;;;;;;5049423;29;8820;-68
2023/03/30 15:15:16;;;;;;;;;8.00;8.00;;;;;;;;5048297;29;8849;-69
2023/03/30 15:17:49;;;;;;;;;10.00;8.80;;;;;;;;5049290;29;8782;-68
2023/03/30 15:20:20;;;;;;;;;9.00;9.00;;;;;;;;5049260;29;8804;-68
2023/03/30 15:22:52;;;;;;;;;2.80;2.80;;;;;;;;5065747;29;8861;-69
2023/03/30 15:25:28;;;;;;;;;8.00;8.00;;;;;;;;5048919;29;8809;-68
2023/03/30 15:28:05;;;;;;;;;35.20;34.40;;;;;;;;5065934;29;8805;-69
2023/03/30 15:30:55;;;;;;;;;15.60;15.60;;;;;;;;5044416;29;8804;-68
2023/03/30 15:33:38;;;;;;;;;23.00;22.60;;;;;;;;5043717;29;8839;-69
2023/03/30 15:36:16;;;;;;;;;30.40;30.40;;;;;;;;5012670;29;8822;-69
2023/03/30 15:39:20;;;;;;;;;15.80;15.80;;;;;;;;5030482;29;8796;-69
2023/03/30 15:42:00;;;;;;;;;17.20;16.20;;;;;;;;5044524;29;8812;-69
2023/03/30 15:44:59;;;;;;;;;40.40;37.20;;;;;;;;5056211;29;8946;-69
2023/03/30 15:47:49;;;;;;;;;23.20;23.20;;;;;;;;5036158;29;8825;-69
2023/03/30 15:50:20;;;;;;;;;51.80;44.60;;;;;;;;5032591;29;8820;-69
2023/03/30 15:52:58;;;;;;;;;28.00;27.00;;;;;;;;5050525;29;8846;-69
2023/03/30 15:55:30;;;;;;;;;26.20;21.80;;;;;;;;5060733;29;8926;-68
2023/03/30 15:58:02;;;;;;;;;21.40;21.40;;;;;;;;5030977;29;9576;-68
2023/03/30 16:00:33;;;;;;;;;33.20;29.20;;;;;;;;5037483;29;9571;-67
2023/03/30 16:03:05;;;;;;;;;14.40;14.40;;;;;;;;5035063;29;8841;-67
2023/03/30 16:05:36;;;;;;;;;14.20;14.20;;;;;;;;5063307;29;8805;-67
2023/03/30 16:08:07;;;;;;;;;19.80;19.00;;;;;;;;5047987;29;9520;-67
2023/03/30 16:10:38;;;;;;;;;25.75;25.75;;;;;;;;5048576;29;8794;-67